Time;durP1;ratioP1;P1;durP2;ratioP2;P2;SDS_P1;SDS_P2;PMS_P1;PMS_P2;Temp;Humidity;BMP_temperature;BMP_pressure;BME280_temperature;BME280_humidity;BME280_pressure;Samples;Min_cycle;Max_cycle;Signal;HPM_P1;HPM_P2
2022/05/29 00:01:01;;;;;;;;;1.00;1.00;;;;;21.43;31.85;101379.13;5003967;28;45353;-58
2022/05/29 00:03:26;;;;;;;;;1.00;1.00;;;;;21.42;31.98;101380.91;5004163;28;45357;-51
2022/05/29 00:05:52;;;;;;;;;1.00;1.00;;;;;21.42;31.97;101377.41;5002700;28;45332;-54
2022/05/29 00:08:26;;;;;;;;;3.00;1.50;;;;;21.42;31.80;101378.25;5002997;28;46230;-57
2022/05/29 00:10:52;;;;;;;;;0.00;0.00;;;;;21.41;31.63;101376.56;5003658;28;45273;-53
2022/05/29 00:13:17;;;;;;;;;1.00;1.00;;;;;21.41;31.70;101373.91;5013842;28;45325;-55
2022/05/29 00:15:43;;;;;;;;;1.75;1.00;;;;;21.41;31.86;101373.91;5022220;28;44882;-56
2022/05/29 00:18:09;;;;;;;;;1.00;1.00;;;;;21.41;31.90;101380.97;5010314;28;45320;-58
2022/05/29 00:20:35;;;;;;;;;1.00;1.00;;;;;21.40;31.90;101369.56;5005306;28;45846;-57
2022/05/29 00:23:01;;;;;;;;;0.25;0.25;;;;;21.41;31.97;101380.97;5011088;28;45305;-56
2022/05/29 00:25:27;;;;;;;;;1.00;1.00;;;;;21.41;31.96;101370.44;5010050;28;44906;-57
2022/05/29 00:27:52;;;;;;;;;0.50;0.50;;;;;21.35;31.87;101358.41;5009856;28;45424;-55
2022/05/29 00:30:18;;;;;;;;;1.00;1.00;;;;;21.39;31.92;101369.66;5010579;28;46705;-55
2022/05/29 00:32:43;;;;;;;;;1.00;1.00;;;;;21.39;31.79;101364.38;5010354;28;44819;-57
2022/05/29 00:35:09;;;;;;;;;1.50;1.00;;;;;21.39;31.97;101361.75;5010545;28;45690;-57
2022/05/29 00:37:38;;;;;;;;;2.00;1.00;;;;;21.37;31.61;101363.59;5013710;28;46285;-54
2022/05/29 00:40:33;;;;;;;;;1.00;1.00;;;;;21.37;32.24;101361.84;5021544;28;45316;-52
2022/05/29 00:42:58;;;;;;;;;1.00;1.00;;;;;21.36;31.86;101367.16;5021845;28;45504;-54
2022/05/29 00:45:24;;;;;;;;;1.00;1.00;;;;;21.36;31.89;101360.13;5021726;28;45283;-58
2022/05/29 00:47:50;;;;;;;;;1.00;1.00;;;;;21.35;31.81;101366.31;5021384;28;45592;-54
2022/05/29 00:50:20;;;;;;;;;1.50;1.50;;;;;21.35;31.82;101353.16;5021829;28;44709;-56
2022/05/29 00:52:47;;;;;;;;;1.00;1.00;;;;;21.36;31.92;101356.63;5020658;28;44704;-57
2022/05/29 00:55:17;;;;;;;;;1.00;1.00;;;;;21.34;31.98;101354.06;5019896;28;44825;-57
2022/05/29 00:57:54;;;;;;;;;1.00;1.00;;;;;21.33;32.20;101356.78;5013970;28;45265;-55
2022/05/29 01:00:25;;;;;;;;;1.00;1.00;;;;;21.33;31.92;101351.53;5017930;28;45142;-57
2022/05/29 01:02:52;;;;;;;;;1.00;0.00;;;;;21.34;31.74;101363.75;5013314;28;45455;-50
2022/05/29 01:05:19;;;;;;;;;1.00;1.00;;;;;21.33;32.47;101354.16;5004139;28;45265;-52
2022/05/29 01:07:50;;;;;;;;;2.00;1.00;;;;;21.33;31.73;101356.78;5003470;28;45326;-53
2022/05/29 01:10:16;;;;;;;;;2.75;1.00;;;;;21.31;32.16;101347.19;5004327;28;45856;-52
2022/05/29 01:12:52;;;;;;;;;1.75;1.50;;;;;21.33;32.29;101351.53;5016768;28;45908;-56
2022/05/29 01:15:43;;;;;;;;;1.75;1.75;;;;;21.31;31.97;101352.44;5003071;28;45302;-55
2022/05/29 01:18:35;;;;;;;;;1.00;1.00;;;;;21.30;32.10;101350.75;5008221;28;45510;-55
2022/05/29 01:21:45;;;;;;;;;1.00;1.00;;;;;21.27;31.95;101345.63;5000032;28;45769;-52
2022/05/29 01:24:35;;;;;;;;;1.00;1.00;;;;;21.28;32.18;101349.09;5014417;28;44892;-54
2022/05/29 01:27:19;;;;;;;;;1.00;1.00;;;;;21.29;31.95;101340.25;5009710;28;45226;-52
2022/05/29 01:30:06;;;;;;;;;1.25;1.00;;;;;21.27;32.27;101332.44;5001446;28;45454;-51
2022/05/29 01:32:55;;;;;;;;;1.00;1.00;;;;;21.27;32.14;101327.16;4999461;28;45913;-51
2022/05/29 01:35:31;;;;;;;;;1.00;1.00;;;;;21.26;32.15;101329.88;4999889;28;45469;-53
2022/05/29 01:38:04;;;;;;;;;1.00;1.00;;;;;21.25;32.13;101322.91;4998815;28;45393;-49
2022/05/29 01:40:55;;;;;;;;;1.00;1.00;;;;;21.24;32.25;101326.47;4999164;28;45424;-56
2022/05/29 01:43:51;;;;;;;;;2.00;2.00;;;;;21.23;31.86;101324.75;4999645;28;45676;-60
2022/05/29 01:46:41;;;;;;;;;1.50;1.50;;;;;21.20;31.91;101320.50;4999226;28;45174;-58
2022/05/29 01:49:18;;;;;;;;;2.00;1.00;;;;;21.19;32.41;101323.19;4999273;28;45357;-55
2022/05/29 01:51:53;;;;;;;;;0.00;0.00;;;;;21.18;32.47;101325.00;4999079;28;46314;-58
2022/05/29 01:54:50;;;;;;;;;1.00;1.00;;;;;21.17;32.45;101321.50;4999252;28;45747;-56
2022/05/29 01:57:32;;;;;;;;;2.00;1.50;;;;;21.17;32.29;101326.75;4989824;28;45208;-55
2022/05/29 02:00:04;;;;;;;;;1.25;1.00;;;;;21.16;32.51;101319.81;4999050;28;45455;-58
2022/05/29 02:02:37;;;;;;;;;3.50;1.00;;;;;21.17;32.03;101320.66;4998442;28;47560;-57
2022/05/29 02:05:11;;;;;;;;;3.00;1.75;;;;;21.15;32.54;101322.50;4999129;28;45289;-54
2022/05/29 02:07:48;;;;;;;;;1.00;1.00;;;;;21.15;32.35;101328.66;4999020;28;45213;-53
2022/05/29 02:10:36;;;;;;;;;0.00;0.00;;;;;21.15;32.40;101317.22;5001839;28;45393;-54
2022/05/29 02:13:15;;;;;;;;;2.50;1.00;;;;;21.14;32.47;101320.78;5002472;28;46562;-55
2022/05/29 02:15:43;;;;;;;;;1.25;1.25;;;;;21.14;32.37;101320.78;5000766;28;45702;-56
2022/05/29 02:18:24;;;;;;;;;1.00;1.00;;;;;21.13;32.60;101314.69;5000038;28;45236;-56
2022/05/29 02:20:56;;;;;;;;;0.50;0.50;;;;;21.12;32.48;101312.97;4998918;28;45370;-57
2022/05/29 02:23:37;;;;;;;;;1.00;1.00;;;;;21.12;32.41;101310.34;4999073;28;45586;-57
2022/05/29 02:26:06;;;;;;;;;1.00;1.00;;;;;21.10;32.76;101312.19;4998669;28;45291;-54
2022/05/29 02:28:46;;;;;;;;;1.50;0.50;;;;;21.11;32.27;101306.00;5000623;28;45382;-58
2022/05/29 02:31:44;;;;;;;;;1.00;1.00;;;;;21.11;32.67;101315.69;5006043;28;45274;-58
2022/05/29 02:34:28;;;;;;;;;2.00;1.50;;;;;21.10;32.41;101300.81;5017851;28;45412;-56
2022/05/29 02:37:02;;;;;;;;;1.00;1.00;;;;;21.09;32.63;101296.47;5003051;28;45219;-57
2022/05/29 02:40:05;;;;;;;;;1.00;1.00;;;;;21.09;32.72;101301.75;4999708;28;45515;-55
2022/05/29 02:43:04;;;;;;;;;1.00;1.00;;;;;21.09;32.85;101299.09;5008591;28;45330;-54
2022/05/29 02:45:43;;;;;;;;;1.00;1.00;;;;;21.08;32.75;101292.13;5011568;28;46117;-55
2022/05/29 02:48:26;;;;;;;;;1.75;1.00;;;;;21.09;32.84;101301.75;5008718;28;45186;-52
2022/05/29 02:50:55;;;;;;;;;1.00;1.00;;;;;21.08;32.91;101290.31;5011164;28;45714;-56
2022/05/29 02:53:20;;;;;;;;;1.50;1.00;;;;;21.07;32.76;101282.50;5010078;28;45603;-59
2022/05/29 02:55:45;;;;;;;;;1.00;1.00;;;;;21.08;32.68;101289.50;5002829;28;46404;-58
2022/05/29 02:58:23;;;;;;;;;2.00;2.00;;;;;21.08;32.88;101290.31;5003635;28;45426;-58
2022/05/29 03:00:54;;;;;;;;;3.50;1.00;;;;;21.07;32.79;101288.63;5004164;28;45374;-58
2022/05/29 03:03:33;;;;;;;;;2.00;1.00;;;;;21.08;32.72;101289.50;5015629;28;45687;-52
2022/05/29 03:06:02;;;;;;;;;1.00;1.00;;;;;21.07;32.89;101282.50;5016762;28;46674;-54
2022/05/29 03:08:30;;;;;;;;;1.00;1.00;;;;;21.06;32.88;101284.28;5014147;28;45383;-57
2022/05/29 03:11:02;;;;;;;;;0.75;0.75;;;;;21.05;32.79;101284.38;5011763;28;45364;-56
2022/05/29 03:13:43;;;;;;;;;1.00;1.00;;;;;21.06;33.05;101286.06;5004198;28;45324;-51
2022/05/29 03:16:26;;;;;;;;;1.25;1.25;;;;;21.07;32.83;101295.69;5003128;28;46613;-54
2022/05/29 03:19:05;;;;;;;;;1.75;0.25;;;;;21.05;32.76;101289.63;5005096;28;45761;-53
2022/05/29 03:22:01;;;;;;;;;1.00;1.00;;;;;21.05;32.79;101285.22;5004046;28;45482;-55
2022/05/29 03:24:53;;;;;;;;;3.00;2.00;;;;;21.05;32.84;101287.00;4993664;28;45429;-53
2022/05/29 03:27:43;;;;;;;;;1.00;1.00;;;;;21.04;33.18;101282.66;5000850;28;46866;-56
2022/05/29 03:30:14;;;;;;;;;2.00;2.00;;;;;21.03;32.90;101286.22;5000843;28;45450;-52
2022/05/29 03:32:40;;;;;;;;;1.00;1.00;;;;;21.02;33.23;101280.09;5001277;28;45351;-51
2022/05/29 03:35:20;;;;;;;;;1.00;1.00;;;;;21.00;33.08;101271.44;5001327;28;45523;-57
2022/05/29 03:37:46;;;;;;;;;1.00;1.00;;;;;21.01;32.74;101279.25;5001311;28;46481;-53
2022/05/29 03:40:12;;;;;;;;;2.00;2.00;;;;;21.01;33.36;101273.97;5001276;28;45414;-53
2022/05/29 03:42:37;;;;;;;;;2.00;2.00;;;;;20.99;33.26;101269.72;5001185;28;45191;-50
2022/05/29 03:45:03;;;;;;;;;2.50;1.00;;;;;20.99;33.48;101267.94;5006307;28;45524;-55
2022/05/29 03:47:29;;;;;;;;;0.25;0.25;;;;;20.98;32.85;101271.50;5008854;28;46288;-50
2022/05/29 03:49:54;;;;;;;;;1.00;1.00;;;;;20.97;33.05;101267.16;5006889;28;45291;-52
2022/05/29 03:52:19;;;;;;;;;1.25;1.25;;;;;20.97;33.44;101271.56;5007712;28;45353;-52
2022/05/29 03:54:45;;;;;;;;;1.00;1.00;;;;;20.96;33.13;101273.38;5010665;28;45555;-54
2022/05/29 03:57:10;;;;;;;;;1.50;1.50;;;;;20.95;33.10;101278.69;5010634;28;45342;-50
2022/05/29 03:59:35;;;;;;;;;3.25;1.00;;;;;20.93;33.38;101265.59;5007080;28;45340;-55
2022/05/29 04:02:01;;;;;;;;;1.25;1.00;;;;;20.93;33.23;101270.88;5007498;28;45155;-51
2022/05/29 04:04:26;;;;;;;;;1.00;1.00;;;;;20.92;33.66;101271.81;5006905;28;45452;-56
2022/05/29 04:06:51;;;;;;;;;1.00;1.00;;;;;20.93;33.63;101276.16;5007171;28;50905;-54
2022/05/29 04:12:18;;;;;;;;;3.00;1.75;;;;;20.91;33.61;101267.47;4941271;28;45335;-57
2022/05/29 04:14:44;;;;;;;;;2.50;2.00;;;;;20.92;33.34;101263.91;4990521;28;45334;-52
2022/05/29 04:17:12;;;;;;;;;2.00;1.00;;;;;20.92;33.27;101266.53;5003490;28;45164;-55
2022/05/29 04:19:38;;;;;;;;;1.75;1.00;;;;;20.92;33.49;101270.97;5012027;28;45273;-50
2022/05/29 04:22:14;;;;;;;;;2.00;2.00;;;;;20.92;33.29;101263.91;5015247;28;45246;-48
2022/05/29 04:24:39;;;;;;;;;2.00;1.00;;;;;20.92;33.81;101273.59;5016285;28;44747;-51
2022/05/29 04:27:08;;;;;;;;;1.00;1.00;;;;;20.91;33.74;101270.09;5020303;28;45079;-56
2022/05/29 04:29:34;;;;;;;;;1.75;1.00;;;;;20.91;33.51;101272.72;5021365;28;45776;-48
2022/05/29 04:34:43;;;;;;;;;2.50;1.00;;;;;20.91;33.64;101267.47;5010823;28;45471;-55
2022/05/29 04:37:08;;;;;;;;;2.00;2.00;;;;;20.90;33.52;101263.13;5009117;28;45541;-57
2022/05/29 04:39:36;;;;;;;;;1.50;1.50;;;;;20.89;33.75;101248.22;5002625;28;45213;-52
2022/05/29 04:42:03;;;;;;;;;3.00;1.00;;;;;20.91;34.03;101272.72;5001231;28;45312;-54
2022/05/29 04:44:30;;;;;;;;;3.50;2.00;;;;;20.89;33.72;101258.78;5000791;28;45554;-54
2022/05/29 04:46:57;;;;;;;;;2.00;1.00;;;;;20.91;33.93;101266.63;5000919;28;46432;-57
2022/05/29 04:49:23;;;;;;;;;1.00;1.00;;;;;20.91;33.83;101271.88;5007330;28;45368;-53
2022/05/29 04:51:48;;;;;;;;;1.00;1.00;;;;;20.91;33.53;101270.09;5022082;28;45147;-54
2022/05/29 04:54:13;;;;;;;;;1.50;1.00;;;;;20.89;33.74;101266.69;5008664;28;45254;-51
2022/05/29 04:56:39;;;;;;;;;2.00;1.25;;;;;20.90;34.01;101257.84;5001259;28;45720;-56
2022/05/29 04:59:04;;;;;;;;;1.25;1.25;;;;;20.89;33.63;101264.03;4999339;28;45397;-54
2022/05/29 05:01:29;;;;;;;;;0.00;0.00;;;;;20.91;33.64;101266.63;5000272;28;44730;-57
2022/05/29 05:03:55;;;;;;;;;2.00;1.00;;;;;20.89;33.90;101258.78;4999940;28;45360;-51
2022/05/29 05:06:20;;;;;;;;;2.75;1.00;;;;;20.90;33.88;101265.75;5001694;28;45426;-55
2022/05/29 05:08:45;;;;;;;;;2.00;2.00;;;;;20.91;33.99;101256.91;5006941;28;45317;-56
2022/05/29 05:11:11;;;;;;;;;1.25;1.25;;;;;20.89;33.91;101260.56;5021731;28;44683;-50
2022/05/29 05:13:36;;;;;;;;;3.25;1.00;;;;;20.91;33.50;101266.63;5017486;28;45463;-48
2022/05/29 05:16:03;;;;;;;;;2.50;1.25;;;;;20.89;34.20;101257.94;5008792;28;46070;-48
2022/05/29 05:18:29;;;;;;;;;2.00;2.00;;;;;20.89;33.51;101264.03;5000736;28;45802;-51
2022/05/29 05:20:54;;;;;;;;;1.25;1.25;;;;;20.89;33.96;101264.03;5000128;28;45504;-52
2022/05/29 05:23:20;;;;;;;;;1.25;1.25;;;;;20.89;34.08;101265.84;4999759;28;45254;-52
2022/05/29 05:25:45;;;;;;;;;2.00;1.00;;;;;20.88;34.16;101261.50;4999299;28;45263;-54
2022/05/29 05:28:10;;;;;;;;;1.00;0.00;;;;;20.88;33.75;101264.13;4998892;28;45256;-54
2022/05/29 05:30:36;;;;;;;;;1.00;1.00;;;;;20.86;33.96;101258.94;4999458;28;45232;-57
2022/05/29 05:33:01;;;;;;;;;1.00;1.00;;;;;20.87;33.86;101265.94;5000413;28;45226;-56
2022/05/29 05:35:27;;;;;;;;;2.75;1.00;;;;;20.87;33.73;101265.94;4998749;28;45487;-56
2022/05/29 05:37:52;;;;;;;;;1.00;1.00;;;;;20.88;33.64;101266.75;5001729;28;45359;-59
2022/05/29 05:40:17;;;;;;;;;1.00;1.00;;;;;20.87;33.90;101263.28;5002147;28;45298;-49
2022/05/29 05:42:43;;;;;;;;;1.50;1.50;;;;;20.87;33.94;101260.66;5002757;28;45348;-57
2022/05/29 05:45:11;;;;;;;;;1.25;1.00;;;;;20.84;33.99;101256.38;5000923;28;46036;-53
2022/05/29 05:47:37;;;;;;;;;2.75;2.50;;;;;20.86;34.28;101264.22;4999178;28;45873;-51
2022/05/29 05:50:05;;;;;;;;;0.25;0.25;;;;;20.84;34.20;101263.44;4999194;28;45327;-51
2022/05/29 05:52:30;;;;;;;;;1.00;1.00;;;;;20.84;34.25;101260.81;4999177;28;45534;-54
2022/05/29 05:54:56;;;;;;;;;2.00;2.00;;;;;20.84;34.23;101268.72;4998400;28;46699;-56
2022/05/29 05:57:21;;;;;;;;;1.00;1.00;;;;;20.82;33.91;101267.94;4998293;28;45294;-53
2022/05/29 05:59:47;;;;;;;;;1.00;1.00;;;;;20.85;33.74;101273.03;4998594;28;45329;-54
2022/05/29 06:02:12;;;;;;;;;1.25;1.25;;;;;20.83;34.22;101265.22;4998958;28;45266;-54
2022/05/29 06:04:40;;;;;;;;;2.00;0.75;;;;;20.85;33.97;101262.50;4998513;28;46356;-54
2022/05/29 06:07:06;;;;;;;;;5.75;2.00;;;;;20.84;34.09;101266.91;4999365;28;45505;-59
2022/05/29 06:09:33;;;;;;;;;0.75;0.75;;;;;20.84;34.29;101271.34;4998630;28;45343;-57
2022/05/29 06:11:58;;;;;;;;;1.00;1.00;;;;;20.84;33.98;101268.72;5000311;28;45546;-54
2022/05/29 06:14:23;;;;;;;;;1.00;1.00;;;;;20.84;34.17;101271.34;5003168;28;45718;-51
2022/05/29 06:16:49;;;;;;;;;1.25;1.00;;;;;20.83;34.14;101259.09;5000744;28;45400;-54
2022/05/29 06:19:14;;;;;;;;;0.50;0.00;;;;;20.84;33.84;101255.53;5014860;28;45368;-56
2022/05/29 06:21:40;;;;;;;;;1.00;1.00;;;;;20.84;33.87;101256.38;4998506;28;45345;-54
2022/05/29 06:24:06;;;;;;;;;3.00;1.25;;;;;20.82;34.14;101250.34;4998169;28;46296;-54
2022/05/29 06:26:31;;;;;;;;;2.00;2.00;;;;;20.82;33.99;101246.84;4997075;28;45810;-55
2022/05/29 06:28:57;;;;;;;;;2.00;1.00;;;;;20.83;33.94;101259.97;4998194;28;45395;-56
2022/05/29 06:31:23;;;;;;;;;2.25;1.00;;;;;20.84;34.51;101258.16;4998351;28;45224;-54
2022/05/29 06:33:49;;;;;;;;;1.00;1.00;;;;;20.82;33.71;101252.13;4997631;28;45306;-58
2022/05/29 06:36:23;;;;;;;;;3.00;1.00;;;;;20.82;33.90;101254.75;4998053;28;45218;-55
2022/05/29 06:38:49;;;;;;;;;1.00;1.00;;;;;20.81;34.31;101255.69;4997930;28;45393;-59
2022/05/29 06:41:16;;;;;;;;;2.00;1.75;;;;;20.83;33.84;101272.25;4998273;28;45315;-58
2022/05/29 06:43:42;;;;;;;;;1.75;1.75;;;;;20.84;33.64;101260.81;4997369;28;48966;-60
2022/05/29 06:46:09;;;;;;;;;2.00;1.00;;;;;20.81;33.84;101261.81;4998464;28;45431;-61
2022/05/29 06:48:37;;;;;;;;;3.25;1.00;;;;;20.81;34.02;101266.22;5001304;28;45314;-59
2022/05/29 06:51:07;;;;;;;;;2.25;1.25;;;;;20.83;33.87;101264.38;5001075;28;45275;-61
2022/05/29 06:53:33;;;;;;;;;2.75;1.00;;;;;20.83;33.77;101269.63;5001607;28;45355;-56
2022/05/29 06:55:59;;;;;;;;;1.00;1.00;;;;;20.82;34.26;101268.78;4999233;28;45396;-57
2022/05/29 06:58:24;;;;;;;;;1.25;1.00;;;;;20.83;33.75;101261.72;4998497;28;45306;-60
2022/05/29 07:09:04;;;;;;;;;1.00;1.00;;;;;20.79;34.22;101260.16;5017549;28;44767;-56
2022/05/29 07:11:34;;;;;;;;;1.75;1.50;;;;;20.77;33.94;101262.03;5005898;28;45472;-56
2022/05/29 07:13:59;;;;;;;;;1.00;1.00;;;;;20.78;34.15;101258.50;5013949;28;47185;-56
2022/05/29 07:16:25;;;;;;;;;1.00;1.00;;;;;20.76;34.09;101258.53;4999187;28;45337;-56
2022/05/29 07:18:50;;;;;;;;;2.00;1.00;;;;;20.77;33.76;101262.03;4999882;28;45332;-56
2022/05/29 07:21:17;;;;;;;;;3.00;2.00;;;;;20.78;33.50;101261.13;5015473;28;45530;-53
2022/05/29 07:23:43;;;;;;;;;1.00;1.00;;;;;20.77;33.37;101251.50;4998906;28;45334;-55
2022/05/29 07:26:08;;;;;;;;;1.00;1.00;;;;;20.76;33.81;101253.28;4999141;28;45329;-57
2022/05/29 07:28:34;;;;;;;;;1.75;1.75;;;;;20.79;33.54;101260.16;4997767;28;45297;-58
2022/05/29 07:30:59;;;;;;;;;2.25;1.25;;;;;20.78;33.82;101247.94;5000818;28;45352;-56
2022/05/29 07:33:25;;;;;;;;;2.25;1.00;;;;;20.80;33.98;101251.34;5002290;28;46333;-53
2022/05/29 07:35:51;;;;;;;;;1.00;1.00;;;;;20.80;33.42;101254.84;5002106;28;45197;-58
2022/05/29 07:38:16;;;;;;;;;1.75;1.75;;;;;20.81;33.52;101246.00;5003375;28;45159;-55
2022/05/29 07:40:42;;;;;;;;;1.50;1.00;;;;;20.81;33.47;101253.91;5004132;28;45167;-52
2022/05/29 07:43:19;;;;;;;;;3.00;1.00;;;;;20.84;33.80;101255.53;5006060;28;46762;-59
2022/05/29 07:45:46;;;;;;;;;0.25;0.25;;;;;20.84;33.31;101251.09;5005798;28;45718;-57
2022/05/29 07:48:14;;;;;;;;;2.00;0.25;;;;;20.82;33.80;101244.22;5007054;28;45298;-57
2022/05/29 07:50:39;;;;;;;;;2.00;2.00;;;;;20.85;33.38;101246.69;5011772;28;45433;-59
2022/05/29 07:53:05;;;;;;;;;1.00;1.00;;;;;20.87;33.51;101249.25;5010797;28;46266;-59
2022/05/29 07:55:30;;;;;;;;;2.00;2.00;;;;;20.88;33.59;101243.94;5011093;28;45131;-57
2022/05/29 07:57:56;;;;;;;;;1.00;1.00;;;;;20.88;33.43;101249.19;5005221;28;45249;-56
2022/05/29 08:00:21;;;;;;;;;3.00;2.00;;;;;20.91;33.44;101246.38;5004534;28;45607;-60
2022/05/29 08:02:47;;;;;;;;;2.00;1.00;;;;;20.91;33.01;101251.66;5018232;28;46956;-60
2022/05/29 08:05:16;;;;;;;;;2.00;2.00;;;;;20.93;33.05;101239.25;5003682;28;45278;-55
2022/05/29 08:07:42;;;;;;;;;1.00;1.00;;;;;20.94;33.28;101240.13;5000813;28;45396;-56
2022/05/29 08:10:09;;;;;;;;;1.00;1.00;;;;;20.94;33.14;101246.22;5000892;28;45305;-56
2022/05/29 08:12:34;;;;;;;;;1.00;1.00;;;;;20.93;32.84;101238.41;5000804;28;45398;-57
2022/05/29 08:15:00;;;;;;;;;3.00;1.25;;;;;20.90;32.97;101228.88;5007956;28;45309;-59
2022/05/29 08:17:25;;;;;;;;;3.00;1.75;;;;;20.94;33.15;101233.06;5015326;28;45679;-55
2022/05/29 08:19:51;;;;;;;;;3.50;1.00;;;;;20.95;32.99;101234.75;5015963;28;45199;-58
2022/05/29 08:22:16;;;;;;;;;1.75;1.00;;;;;20.97;32.99;101234.69;5013770;28;46710;-56
2022/05/29 08:33:01;;;;;;;;;0.50;0.50;;;;;21.01;32.67;101225.69;5000235;28;45518;-57
2022/05/29 08:35:27;;;;;;;;;0.50;0.50;;;;;21.03;33.20;101222.97;4999245;28;45362;-56
2022/05/29 08:37:53;;;;;;;;;3.75;0.25;;;;;21.05;33.05;101221.13;4999025;28;45342;-59
2022/05/29 08:40:19;;;;;;;;;2.50;1.00;;;;;21.05;32.77;101221.13;4999465;28;45452;-55
2022/05/29 08:42:44;;;;;;;;;1.00;1.00;;;;;21.06;32.86;101213.13;5000460;28;45411;-58
2022/05/29 08:45:12;;;;;;;;;1.00;1.00;;;;;21.08;32.90;101218.34;5007635;28;45410;-56
2022/05/29 08:47:39;;;;;;;;;0.00;0.00;;;;;21.07;32.68;101225.38;5019480;28;44667;-59
2022/05/29 08:50:06;;;;;;;;;0.50;0.50;;;;;21.08;32.97;101226.25;5021227;28;44837;-58
2022/05/29 08:52:53;;;;;;;;;1.00;1.00;;;;;21.07;32.70;101217.47;5015380;28;45317;-56
2022/05/29 08:55:26;;;;;;;;;1.50;1.00;;;;;21.06;33.14;101214.91;5016534;28;45074;-55
2022/05/29 08:57:57;;;;;;;;;0.25;0.25;;;;;21.06;32.99;101221.03;5014504;28;45257;-56
2022/05/29 09:00:38;;;;;;;;;2.00;1.00;;;;;21.04;33.05;101215.00;5008997;28;45317;-58
2022/05/29 09:03:31;;;;;;;;;2.25;0.25;;;;;21.03;33.13;101207.16;5002128;28;45633;-56
2022/05/29 09:06:18;;;;;;;;;1.00;1.00;;;;;21.05;33.12;101207.94;5000535;28;45339;-58
2022/05/29 09:08:51;;;;;;;;;0.50;0.50;;;;;21.05;32.79;101206.19;5002755;28;45387;-58
2022/05/29 09:11:26;;;;;;;;;1.00;1.00;;;;;21.06;33.04;101207.00;5003889;28;45446;-56
2022/05/29 09:14:05;;;;;;;;;0.50;0.50;;;;;21.05;32.49;101200.03;5002977;28;46531;-57
2022/05/29 09:16:44;;;;;;;;;0.00;0.00;;;;;21.05;32.53;101187.72;4999358;28;45991;-56
2022/05/29 09:19:32;;;;;;;;;0.00;0.00;;;;;21.09;32.42;101206.84;4999889;28;45419;-58
2022/05/29 09:22:03;;;;;;;;;1.00;1.00;;;;;21.09;32.43;101196.31;4998748;28;45785;-55
2022/05/29 09:24:45;;;;;;;;;1.00;1.00;;;;;21.10;32.09;101195.38;5018165;28;46796;-56
2022/05/29 09:27:13;;;;;;;;;1.00;1.00;;;;;21.12;32.47;101188.22;5008165;28;45257;-54
2022/05/29 09:29:38;;;;;;;;;1.25;0.00;;;;;21.10;32.03;101180.41;5002150;28;45272;-56
2022/05/29 09:32:10;;;;;;;;;1.00;1.00;;;;;21.10;32.04;101180.41;5002282;28;45324;-57
2022/05/29 09:34:35;;;;;;;;;0.00;0.00;;;;;21.10;32.25;101174.31;5003252;28;47132;-56
2022/05/29 09:37:10;;;;;;;;;2.00;0.75;;;;;21.11;31.96;101166.31;5002143;28;45363;-53
2022/05/29 09:39:41;;;;;;;;;1.00;1.00;;;;;21.13;31.78;101176.75;4999302;28;45158;-57
2022/05/29 09:42:20;;;;;;;;;0.00;0.00;;;;;21.13;31.84;101171.50;4998574;28;45345;-56
2022/05/29 09:45:24;;;;;;;;;0.25;0.25;;;;;21.14;31.84;101174.06;4999088;28;45399;-54
2022/05/29 09:50:54;;;;;;;;;0.25;0.25;;;;;21.15;31.73;101169.63;4999112;28;45845;-58
2022/05/29 09:53:27;;;;;;;;;0.75;0.75;;;;;21.14;31.65;101167.91;4999395;28;45333;-58
2022/05/29 09:56:04;;;;;;;;;1.00;1.00;;;;;21.16;31.54;101166.94;4998449;28;46655;-55
2022/05/29 09:58:43;;;;;;;;;0.00;0.00;;;;;21.16;31.28;101163.44;4998106;28;46040;-58
2022/05/29 10:01:09;;;;;;;;;0.75;0.75;;;;;21.17;31.72;101157.22;4998634;28;45336;-57
2022/05/29 10:03:44;;;;;;;;;0.50;0.50;;;;;21.18;31.82;101164.19;4998818;28;45579;-54
2022/05/29 10:06:22;;;;;;;;;1.00;1.00;;;;;21.20;31.40;101158.84;4998157;28;46912;-57
2022/05/29 10:08:49;;;;;;;;;0.00;0.00;;;;;21.15;31.31;101153.81;4998244;28;45401;-57
2022/05/29 10:11:15;;;;;;;;;1.00;1.00;;;;;21.17;31.23;101163.34;4998714;28;45272;-56
2022/05/29 10:13:41;;;;;;;;;1.00;1.00;;;;;21.16;31.48;101155.53;4999544;28;45372;-60
2022/05/29 10:16:09;;;;;;;;;2.00;1.00;;;;;21.16;31.68;101150.25;4998659;28;45450;-58
2022/05/29 10:18:40;;;;;;;;;0.75;0.75;;;;;21.15;31.49;101159.94;5000782;28;45270;-59
2022/05/29 10:21:23;;;;;;;;;2.00;1.00;;;;;21.15;31.67;101149.41;5001917;28;45290;-58
2022/05/29 10:23:58;;;;;;;;;1.00;1.00;;;;;21.14;31.63;101154.75;5001845;28;45341;-56
2022/05/29 10:26:33;;;;;;;;;1.00;1.00;;;;;21.15;31.38;101153.81;4998707;28;46374;-58
2022/05/29 10:29:01;;;;;;;;;1.00;1.00;;;;;21.14;31.80;101152.97;5000952;28;45814;-58
2022/05/29 10:31:37;;;;;;;;;0.00;0.00;;;;;21.14;31.44;101152.97;4999078;28;45360;-54
2022/05/29 10:34:05;;;;;;;;;0.00;0.00;;;;;21.15;31.25;101149.41;4999005;28;45220;-56
2022/05/29 10:36:30;;;;;;;;;1.50;0.25;;;;;21.14;32.04;101149.47;4999902;28;45613;-57
2022/05/29 10:39:11;;;;;;;;;1.25;1.00;;;;;21.17;31.61;101142.25;5006326;28;45336;-55
2022/05/29 10:41:40;;;;;;;;;0.00;0.00;;;;;21.17;31.68;101144.03;5011712;28;45359;-56
2022/05/29 10:44:08;;;;;;;;;2.25;1.00;;;;;21.19;31.53;101136.91;5014174;28;45253;-58
2022/05/29 10:46:53;;;;;;;;;2.50;1.25;;;;;21.20;31.65;101137.75;5018192;28;46717;-55
2022/05/29 10:49:24;;;;;;;;;1.50;1.00;;;;;21.17;31.20;101134.34;5010757;28;45740;-58
2022/05/29 10:51:50;;;;;;;;;0.00;0.00;;;;;21.17;31.29;101136.13;5003123;28;45206;-58
2022/05/29 10:54:59;;;;;;;;;1.00;1.00;;;;;21.17;31.53;101136.97;5002173;28;45486;-58
2022/05/29 10:57:39;;;;;;;;;1.00;1.00;;;;;21.16;31.55;101129.16;4998472;28;46410;-52
2022/05/29 11:00:28;;;;;;;;;0.00;0.00;;;;;21.15;31.26;101135.38;4998824;28;45931;-59
2022/05/29 11:03:42;;;;;;;;;1.00;1.00;;;;;21.13;31.10;101135.47;4996665;28;45363;-53
2022/05/29 11:06:17;;;;;;;;;1.00;1.00;;;;;21.13;31.49;101131.94;4999164;28;45485;-55
2022/05/29 11:09:36;;;;;;;;;0.00;0.00;;;;;21.11;31.17;101116.22;4999772;28;46193;-50
2022/05/29 11:12:07;;;;;;;;;1.00;1.00;;;;;21.12;31.35;101122.34;4981042;28;45298;-53
2022/05/29 11:14:57;;;;;;;;;1.00;1.00;;;;;21.11;31.56;101110.97;4987402;28;45415;-57
2022/05/29 11:17:22;;;;;;;;;0.50;0.50;;;;;21.10;31.30;101116.31;5012927;28;45320;-60
2022/05/29 11:19:49;;;;;;;;;3.00;1.00;;;;;21.11;31.24;101120.66;5016720;28;46142;-59
2022/05/29 11:22:14;;;;;;;;;2.00;1.00;;;;;21.12;31.06;101111.78;5015485;28;45230;-57
2022/05/29 11:25:18;;;;;;;;;2.00;2.00;;;;;21.10;31.39;101097.88;5015047;28;44698;-59
2022/05/29 11:28:05;;;;;;;;;1.00;1.00;;;;;21.13;31.21;101101.19;5016108;28;44770;-57
2022/05/29 11:30:55;;;;;;;;;1.00;1.00;;;;;21.14;31.04;101104.66;5017349;28;46388;-57
2022/05/29 11:33:23;;;;;;;;;0.00;0.00;;;;;21.13;30.91;101097.69;5012482;28;45375;-59
2022/05/29 11:35:58;;;;;;;;;1.50;1.00;;;;;21.12;30.86;101086.31;5007344;28;45314;-60
2022/05/29 11:38:29;;;;;;;;;0.75;0.75;;;;;21.12;31.07;101091.59;5008148;28;45171;-59
2022/05/29 11:41:01;;;;;;;;;0.25;0.25;;;;;21.09;31.05;101083.00;5019015;28;45364;-56
2022/05/29 11:43:34;;;;;;;;;3.00;2.00;;;;;21.12;31.50;101080.16;5018186;28;45118;-53
2022/05/29 11:51:52;;;;;;;;;1.00;1.00;;;;;21.13;31.49;101066.06;5012954;28;45509;-57
2022/05/29 11:54:33;;;;;;;;;1.25;1.00;;;;;21.13;31.32;101059.03;5011030;28;45324;-57
2022/05/29 11:57:07;;;;;;;;;1.50;1.50;;;;;21.14;31.17;101055.47;5003412;28;45306;-55
2022/05/29 12:00:08;;;;;;;;;1.00;1.00;;;;;21.15;31.17;101056.28;5001788;28;45238;-56
2022/05/29 12:02:52;;;;;;;;;1.00;1.00;;;;;21.16;30.88;101055.34;5001115;28;46646;-53
2022/05/29 12:05:26;;;;;;;;;2.50;1.50;;;;;21.17;31.20;101043.88;5000843;28;45941;-55
2022/05/29 12:08:10;;;;;;;;;1.00;1.00;;;;;21.16;31.00;101035.13;5000882;28;45525;-56
2022/05/29 12:10:57;;;;;;;;;1.25;1.25;;;;;21.17;31.05;101033.34;5001053;28;45242;-57
2022/05/29 12:13:28;;;;;;;;;1.75;1.75;;;;;21.17;30.84;101030.72;5000535;28;46880;-58
2022/05/29 12:15:59;;;;;;;;;0.50;0.50;;;;;21.18;30.68;101040.31;5000776;28;45742;-55
2022/05/29 12:18:49;;;;;;;;;1.00;1.00;;;;;21.19;30.95;101025.34;5001381;28;45333;-55